sensor_id;sensor_type;location;lat;lon;timestamp;P1;durP1;ratioP1;P2;durP2;ratioP2
58470;SDS011;44258;51.288;12.068;2023-12-07T00:01:31;24.70;;;11.32;;
58470;SDS011;44258;51.288;12.068;2023-12-07T00:04:01;28.05;;;11.07;;
58470;SDS011;44258;51.288;12.068;2023-12-07T00:06:28;30.63;;;11.55;;
58470;SDS011;44258;51.288;12.068;2023-12-07T00:08:54;25.25;;;11.27;;
58470;SDS011;44258;51.288;12.068;2023-12-07T00:11:21;28.40;;;11.63;;
58470;SDS011;44258;51.288;12.068;2023-12-07T00:13:48;22.45;;;10.23;;
58470;SDS011;44258;51.288;12.068;2023-12-07T00:16:15;28.38;;;11.18;;
58470;SDS011;44258;51.288;12.068;2023-12-07T00:18:42;24.88;;;10.55;;
58470;SDS011;44258;51.288;12.068;2023-12-07T00:21:10;24.13;;;10.73;;
58470;SDS011;44258;51.288;12.068;2023-12-07T00:23:37;24.95;;;10.73;;
58470;SDS011;44258;51.288;12.068;2023-12-07T00:26:03;27.35;;;11.90;;
58470;SDS011;44258;51.288;12.068;2023-12-07T00:28:31;26.90;;;12.27;;
58470;SDS011;44258;51.288;12.068;2023-12-07T00:30:58;26.30;;;10.77;;
58470;SDS011;44258;51.288;12.068;2023-12-07T00:33:24;26.33;;;11.05;;
58470;SDS011;44258;51.288;12.068;2023-12-07T00:35:51;26.75;;;11.65;;
58470;SDS011;44258;51.288;12.068;2023-12-07T00:38:19;29.35;;;13.93;;
58470;SDS011;44258;51.288;12.068;2023-12-07T00:40:46;28.35;;;11.95;;
58470;SDS011;44258;51.288;12.068;2023-12-07T00:43:12;28.05;;;11.63;;
58470;SDS011;44258;51.288;12.068;2023-12-07T00:45:41;28.60;;;11.40;;
58470;SDS011;44258;51.288;12.068;2023-12-07T00:48:08;25.17;;;10.02;;
58470;SDS011;44258;51.288;12.068;2023-12-07T00:50:34;25.48;;;11.23;;
58470;SDS011;44258;51.288;12.068;2023-12-07T00:53:01;26.83;;;11.05;;
58470;SDS011;44258;51.288;12.068;2023-12-07T00:55:29;29.65;;;10.35;;
58470;SDS011;44258;51.288;12.068;2023-12-07T00:57:56;24.38;;;10.50;;
58470;SDS011;44258;51.288;12.068;2023-12-07T01:00:22;26.38;;;10.55;;
58470;SDS011;44258;51.288;12.068;2023-12-07T01:02:49;24.73;;;10.50;;
58470;SDS011;44258;51.288;12.068;2023-12-07T01:05:19;27.75;;;9.35;;
58470;SDS011;44258;51.288;12.068;2023-12-07T01:07:46;27.30;;;11.40;;
58470;SDS011;44258;51.288;12.068;2023-12-07T01:10:13;26.52;;;10.60;;
58470;SDS011;44258;51.288;12.068;2023-12-07T01:12:43;24.80;;;10.93;;
58470;SDS011;44258;51.288;12.068;2023-12-07T01:15:11;28.65;;;10.57;;
58470;SDS011;44258;51.288;12.068;2023-12-07T01:17:38;29.42;;;11.15;;
58470;SDS011;44258;51.288;12.068;2023-12-07T01:20:05;31.27;;;12.77;;
58470;SDS011;44258;51.288;12.068;2023-12-07T01:22:37;27.30;;;11.55;;
58470;SDS011;44258;51.288;12.068;2023-12-07T01:25:05;25.98;;;11.50;;
58470;SDS011;44258;51.288;12.068;2023-12-07T01:27:32;26.60;;;11.30;;
58470;SDS011;44258;51.288;12.068;2023-12-07T01:30:00;23.05;;;9.68;;
58470;SDS011;44258;51.288;12.068;2023-12-07T01:32:28;27.95;;;11.65;;
58470;SDS011;44258;51.288;12.068;2023-12-07T01:34:55;28.65;;;11.27;;
58470;SDS011;44258;51.288;12.068;2023-12-07T01:37:22;26.08;;;10.80;;
58470;SDS011;44258;51.288;12.068;2023-12-07T01:39:48;29.77;;;10.75;;
58470;SDS011;44258;51.288;12.068;2023-12-07T01:42:15;27.15;;;10.65;;
58470;SDS011;44258;51.288;12.068;2023-12-07T01:44:42;29.83;;;12.75;;
58470;SDS011;44258;51.288;12.068;2023-12-07T01:47:11;27.95;;;10.77;;
58470;SDS011;44258;51.288;12.068;2023-12-07T01:49:38;29.80;;;11.43;;
58470;SDS011;44258;51.288;12.068;2023-12-07T01:52:05;33.80;;;12.95;;
58470;SDS011;44258;51.288;12.068;2023-12-07T01:54:33;26.10;;;11.10;;
58470;SDS011;44258;51.288;12.068;2023-12-07T01:57:01;28.45;;;11.20;;
58470;SDS011;44258;51.288;12.068;2023-12-07T01:59:28;27.75;;;11.63;;
58470;SDS011;44258;51.288;12.068;2023-12-07T02:01:55;25.63;;;9.82;;
58470;SDS011;44258;51.288;12.068;2023-12-07T02:04:24;29.80;;;11.55;;
58470;SDS011;44258;51.288;12.068;2023-12-07T02:06:52;28.98;;;10.40;;
58470;SDS011;44258;51.288;12.068;2023-12-07T02:09:23;32.38;;;12.48;;
58470;SDS011;44258;51.288;12.068;2023-12-07T02:11:50;32.45;;;13.20;;
58470;SDS011;44258;51.288;12.068;2023-12-07T02:14:16;30.83;;;11.63;;
58470;SDS011;44258;51.288;12.068;2023-12-07T02:16:45;29.75;;;11.25;;
58470;SDS011;44258;51.288;12.068;2023-12-07T02:19:18;26.70;;;11.40;;
58470;SDS011;44258;51.288;12.068;2023-12-07T02:21:59;25.42;;;11.07;;
58470;SDS011;44258;51.288;12.068;2023-12-07T02:24:34;27.58;;;11.55;;
58470;SDS011;44258;51.288;12.068;2023-12-07T02:27:10;28.20;;;11.73;;
58470;SDS011;44258;51.288;12.068;2023-12-07T02:29:37;31.95;;;11.45;;
58470;SDS011;44258;51.288;12.068;2023-12-07T02:32:04;26.90;;;11.40;;
58470;SDS011;44258;51.288;12.068;2023-12-07T02:34:32;27.02;;;12.68;;
58470;SDS011;44258;51.288;12.068;2023-12-07T02:36:58;28.75;;;10.93;;
58470;SDS011;44258;51.288;12.068;2023-12-07T02:39:28;32.13;;;11.90;;
58470;SDS011;44258;51.288;12.068;2023-12-07T02:41:55;30.95;;;12.32;;
58470;SDS011;44258;51.288;12.068;2023-12-07T02:44:24;26.02;;;11.25;;
58470;SDS011;44258;51.288;12.068;2023-12-07T02:46:51;30.40;;;12.00;;
58470;SDS011;44258;51.288;12.068;2023-12-07T02:49:18;29.98;;;10.45;;
58470;SDS011;44258;51.288;12.068;2023-12-07T02:51:45;29.30;;;11.63;;
58470;SDS011;44258;51.288;12.068;2023-12-07T02:54:12;29.95;;;11.93;;
58470;SDS011;44258;51.288;12.068;2023-12-07T02:56:40;30.02;;;12.32;;
58470;SDS011;44258;51.288;12.068;2023-12-07T02:59:08;27.50;;;11.27;;
58470;SDS011;44258;51.288;12.068;2023-12-07T03:01:36;30.27;;;11.45;;
58470;SDS011;44258;51.288;12.068;2023-12-07T03:04:02;29.73;;;12.10;;
58470;SDS011;44258;51.288;12.068;2023-12-07T03:06:29;31.70;;;13.20;;
58470;SDS011;44258;51.288;12.068;2023-12-07T03:08:56;30.67;;;12.25;;
58470;SDS011;44258;51.288;12.068;2023-12-07T03:11:22;31.00;;;12.38;;
58470;SDS011;44258;51.288;12.068;2023-12-07T03:13:50;31.10;;;12.02;;
58470;SDS011;44258;51.288;12.068;2023-12-07T03:16:17;30.80;;;11.35;;
58470;SDS011;44258;51.288;12.068;2023-12-07T03:18:46;27.80;;;11.60;;
58470;SDS011;44258;51.288;12.068;2023-12-07T03:21:16;28.27;;;11.55;;
58470;SDS011;44258;51.288;12.068;2023-12-07T03:23:43;27.25;;;12.07;;
58470;SDS011;44258;51.288;12.068;2023-12-07T03:26:11;30.85;;;11.38;;
58470;SDS011;44258;51.288;12.068;2023-12-07T03:28:38;29.25;;;10.82;;
58470;SDS011;44258;51.288;12.068;2023-12-07T03:31:04;29.85;;;12.35;;
58470;SDS011;44258;51.288;12.068;2023-12-07T03:33:31;31.63;;;12.88;;
58470;SDS011;44258;51.288;12.068;2023-12-07T03:35:59;29.50;;;12.05;;
58470;SDS011;44258;51.288;12.068;2023-12-07T03:38:27;31.35;;;11.75;;
58470;SDS011;44258;51.288;12.068;2023-12-07T03:40:54;28.30;;;11.52;;
58470;SDS011;44258;51.288;12.068;2023-12-07T03:43:21;28.48;;;11.57;;
58470;SDS011;44258;51.288;12.068;2023-12-07T03:48:14;25.40;;;10.38;;
58470;SDS011;44258;51.288;12.068;2023-12-07T03:50:40;30.50;;;10.77;;
58470;SDS011;44258;51.288;12.068;2023-12-07T03:53:08;26.30;;;10.60;;
58470;SDS011;44258;51.288;12.068;2023-12-07T03:55:35;26.08;;;11.18;;
58470;SDS011;44258;51.288;12.068;2023-12-07T03:58:02;24.70;;;10.63;;
58470;SDS011;44258;51.288;12.068;2023-12-07T04:00:31;25.90;;;10.00;;
58470;SDS011;44258;51.288;12.068;2023-12-07T04:02:57;29.55;;;11.80;;
58470;SDS011;44258;51.288;12.068;2023-12-07T04:05:24;25.83;;;11.38;;
58470;SDS011;44258;51.288;12.068;2023-12-07T04:07:52;26.95;;;10.73;;
58470;SDS011;44258;51.288;12.068;2023-12-07T04:10:20;28.02;;;10.82;;
58470;SDS011;44258;51.288;12.068;2023-12-07T04:12:47;27.02;;;10.98;;
58470;SDS011;44258;51.288;12.068;2023-12-07T04:15:14;25.45;;;10.98;;
58470;SDS011;44258;51.288;12.068;2023-12-07T04:17:40;27.58;;;10.30;;
58470;SDS011;44258;51.288;12.068;2023-12-07T04:20:10;27.13;;;11.95;;
58470;SDS011;44258;51.288;12.068;2023-12-07T04:22:38;28.98;;;11.00;;
58470;SDS011;44258;51.288;12.068;2023-12-07T04:25:05;25.30;;;10.30;;
58470;SDS011;44258;51.288;12.068;2023-12-07T04:27:33;26.38;;;10.48;;
58470;SDS011;44258;51.288;12.068;2023-12-07T04:30:02;28.73;;;10.27;;
58470;SDS011;44258;51.288;12.068;2023-12-07T04:32:31;25.30;;;9.93;;
58470;SDS011;44258;51.288;12.068;2023-12-07T04:34:58;27.70;;;11.00;;
58470;SDS011;44258;51.288;12.068;2023-12-07T04:37:25;28.05;;;10.40;;
58470;SDS011;44258;51.288;12.068;2023-12-07T04:39:51;25.02;;;11.18;;
58470;SDS011;44258;51.288;12.068;2023-12-07T04:42:18;30.92;;;12.25;;
58470;SDS011;44258;51.288;12.068;2023-12-07T04:44:46;28.17;;;11.88;;
58470;SDS011;44258;51.288;12.068;2023-12-07T04:47:13;26.20;;;10.52;;
58470;SDS011;44258;51.288;12.068;2023-12-07T04:49:40;25.58;;;10.60;;
58470;SDS011;44258;51.288;12.068;2023-12-07T04:52:06;28.10;;;11.40;;
58470;SDS011;44258;51.288;12.068;2023-12-07T04:54:33;28.13;;;10.82;;
58470;SDS011;44258;51.288;12.068;2023-12-07T04:57:01;29.50;;;12.82;;
58470;SDS011;44258;51.288;12.068;2023-12-07T04:59:28;25.80;;;10.25;;
58470;SDS011;44258;51.288;12.068;2023-12-07T05:01:57;24.20;;;10.18;;
58470;SDS011;44258;51.288;12.068;2023-12-07T05:04:23;25.17;;;10.82;;
58470;SDS011;44258;51.288;12.068;2023-12-07T05:06:50;27.48;;;10.88;;
58470;SDS011;44258;51.288;12.068;2023-12-07T05:09:17;27.95;;;11.23;;
58470;SDS011;44258;51.288;12.068;2023-12-07T05:11:43;30.45;;;10.73;;
58470;SDS011;44258;51.288;12.068;2023-12-07T05:14:11;23.25;;;9.43;;
58470;SDS011;44258;51.288;12.068;2023-12-07T05:16:38;33.42;;;11.98;;
58470;SDS011;44258;51.288;12.068;2023-12-07T05:19:06;25.83;;;10.93;;
58470;SDS011;44258;51.288;12.068;2023-12-07T05:21:32;25.67;;;10.55;;
58470;SDS011;44258;51.288;12.068;2023-12-07T05:24:00;25.20;;;10.77;;
58470;SDS011;44258;51.288;12.068;2023-12-07T05:26:27;26.45;;;10.65;;
58470;SDS011;44258;51.288;12.068;2023-12-07T05:28:54;29.20;;;10.98;;
58470;SDS011;44258;51.288;12.068;2023-12-07T05:31:21;26.77;;;9.95;;
58470;SDS011;44258;51.288;12.068;2023-12-07T05:33:48;27.73;;;10.63;;
58470;SDS011;44258;51.288;12.068;2023-12-07T05:36:18;25.00;;;9.95;;
58470;SDS011;44258;51.288;12.068;2023-12-07T05:38:45;25.05;;;9.68;;
58470;SDS011;44258;51.288;12.068;2023-12-07T05:41:13;25.80;;;10.65;;
58470;SDS011;44258;51.288;12.068;2023-12-07T05:43:42;25.73;;;10.85;;
58470;SDS011;44258;51.288;12.068;2023-12-07T05:46:09;23.27;;;9.88;;
58470;SDS011;44258;51.288;12.068;2023-12-07T05:48:36;25.02;;;10.23;;
58470;SDS011;44258;51.288;12.068;2023-12-07T05:51:03;25.65;;;10.63;;
58470;SDS011;44258;51.288;12.068;2023-12-07T05:53:32;21.30;;;8.88;;
58470;SDS011;44258;51.288;12.068;2023-12-07T05:55:58;26.40;;;10.48;;
58470;SDS011;44258;51.288;12.068;2023-12-07T05:58:25;22.60;;;9.60;;
58470;SDS011;44258;51.288;12.068;2023-12-07T06:00:52;23.13;;;10.20;;
58470;SDS011;44258;51.288;12.068;2023-12-07T06:03:19;25.48;;;10.63;;
58470;SDS011;44258;51.288;12.068;2023-12-07T06:05:46;24.67;;;10.35;;
58470;SDS011;44258;51.288;12.068;2023-12-07T06:08:14;28.05;;;10.75;;
58470;SDS011;44258;51.288;12.068;2023-12-07T06:10:42;25.67;;;10.77;;
58470;SDS011;44258;51.288;12.068;2023-12-07T06:13:09;23.55;;;9.70;;
58470;SDS011;44258;51.288;12.068;2023-12-07T06:15:35;26.90;;;10.48;;
58470;SDS011;44258;51.288;12.068;2023-12-07T06:18:02;25.17;;;10.05;;
58470;SDS011;44258;51.288;12.068;2023-12-07T06:20:29;24.58;;;10.23;;
58470;SDS011;44258;51.288;12.068;2023-12-07T06:22:56;26.23;;;10.38;;
58470;SDS011;44258;51.288;12.068;2023-12-07T06:25:24;26.50;;;11.13;;
58470;SDS011;44258;51.288;12.068;2023-12-07T06:27:54;27.20;;;11.20;;
58470;SDS011;44258;51.288;12.068;2023-12-07T06:30:22;30.05;;;12.40;;
58470;SDS011;44258;51.288;12.068;2023-12-07T06:32:49;29.42;;;11.10;;
58470;SDS011;44258;51.288;12.068;2023-12-07T06:35:16;28.83;;;10.88;;
58470;SDS011;44258;51.288;12.068;2023-12-07T06:37:43;29.38;;;11.60;;
58470;SDS011;44258;51.288;12.068;2023-12-07T06:40:10;30.15;;;12.65;;
58470;SDS011;44258;51.288;12.068;2023-12-07T06:42:37;29.38;;;11.15;;
58470;SDS011;44258;51.288;12.068;2023-12-07T06:45:06;29.73;;;11.57;;
58470;SDS011;44258;51.288;12.068;2023-12-07T06:47:36;29.48;;;11.93;;
58470;SDS011;44258;51.288;12.068;2023-12-07T06:50:04;34.15;;;13.02;;
58470;SDS011;44258;51.288;12.068;2023-12-07T06:52:33;46.92;;;19.98;;
58470;SDS011;44258;51.288;12.068;2023-12-07T06:55:00;46.90;;;19.58;;
58470;SDS011;44258;51.288;12.068;2023-12-07T06:57:27;47.28;;;18.17;;
58470;SDS011;44258;51.288;12.068;2023-12-07T06:59:54;42.88;;;17.42;;
58470;SDS011;44258;51.288;12.068;2023-12-07T07:02:22;34.10;;;14.40;;
58470;SDS011;44258;51.288;12.068;2023-12-07T07:04:50;35.33;;;12.90;;
58470;SDS011;44258;51.288;12.068;2023-12-07T07:07:17;30.52;;;11.85;;
58470;SDS011;44258;51.288;12.068;2023-12-07T07:09:44;34.13;;;13.90;;
58470;SDS011;44258;51.288;12.068;2023-12-07T07:12:10;32.40;;;13.32;;
58470;SDS011;44258;51.288;12.068;2023-12-07T07:14:37;35.00;;;14.15;;
58470;SDS011;44258;51.288;12.068;2023-12-07T07:17:04;38.67;;;15.52;;
58470;SDS011;44258;51.288;12.068;2023-12-07T07:19:34;36.75;;;15.70;;
58470;SDS011;44258;51.288;12.068;2023-12-07T07:22:00;36.28;;;14.23;;
58470;SDS011;44258;51.288;12.068;2023-12-07T07:24:27;33.38;;;14.75;;
58470;SDS011;44258;51.288;12.068;2023-12-07T07:26:54;36.70;;;15.75;;
58470;SDS011;44258;51.288;12.068;2023-12-07T07:29:21;34.20;;;13.38;;
58470;SDS011;44258;51.288;12.068;2023-12-07T07:31:48;29.40;;;13.07;;
58470;SDS011;44258;51.288;12.068;2023-12-07T07:34:15;30.13;;;11.57;;
58470;SDS011;44258;51.288;12.068;2023-12-07T07:36:44;28.00;;;11.23;;
58470;SDS011;44258;51.288;12.068;2023-12-07T07:39:10;27.67;;;11.23;;
58470;SDS011;44258;51.288;12.068;2023-12-07T07:41:40;29.20;;;11.02;;
58470;SDS011;44258;51.288;12.068;2023-12-07T07:44:07;27.23;;;11.75;;
58470;SDS011;44258;51.288;12.068;2023-12-07T07:46:33;26.17;;;11.57;;
58470;SDS011;44258;51.288;12.068;2023-12-07T07:49:00;29.63;;;11.32;;
58470;SDS011;44258;51.288;12.068;2023-12-07T07:51:29;27.98;;;11.15;;
58470;SDS011;44258;51.288;12.068;2023-12-07T07:53:58;29.20;;;11.10;;
58470;SDS011;44258;51.288;12.068;2023-12-07T07:56:25;26.08;;;10.30;;
58470;SDS011;44258;51.288;12.068;2023-12-07T07:58:51;27.83;;;11.43;;
58470;SDS011;44258;51.288;12.068;2023-12-07T08:01:19;27.50;;;11.38;;
58470;SDS011;44258;51.288;12.068;2023-12-07T08:03:45;24.42;;;10.55;;
58470;SDS011;44258;51.288;12.068;2023-12-07T08:06:12;25.35;;;10.15;;
58470;SDS011;44258;51.288;12.068;2023-12-07T08:08:39;28.25;;;11.82;;
58470;SDS011;44258;51.288;12.068;2023-12-07T08:11:08;30.27;;;11.75;;
58470;SDS011;44258;51.288;12.068;2023-12-07T08:13:34;30.50;;;12.35;;
58470;SDS011;44258;51.288;12.068;2023-12-07T08:16:01;24.83;;;11.40;;
58470;SDS011;44258;51.288;12.068;2023-12-07T08:18:28;28.65;;;11.43;;
58470;SDS011;44258;51.288;12.068;2023-12-07T08:20:55;29.23;;;12.15;;
58470;SDS011;44258;51.288;12.068;2023-12-07T08:23:22;34.10;;;12.45;;
58470;SDS011;44258;51.288;12.068;2023-12-07T08:25:49;29.80;;;12.52;;
58470;SDS011;44258;51.288;12.068;2023-12-07T08:28:17;27.98;;;12.13;;
58470;SDS011;44258;51.288;12.068;2023-12-07T08:30:44;29.30;;;11.18;;
58470;SDS011;44258;51.288;12.068;2023-12-07T08:33:10;27.65;;;11.15;;
58470;SDS011;44258;51.288;12.068;2023-12-07T08:35:37;28.65;;;12.10;;
58470;SDS011;44258;51.288;12.068;2023-12-07T08:38:04;29.00;;;11.10;;
58470;SDS011;44258;51.288;12.068;2023-12-07T08:40:31;31.52;;;12.93;;
58470;SDS011;44258;51.288;12.068;2023-12-07T08:42:58;28.67;;;12.10;;
58470;SDS011;44258;51.288;12.068;2023-12-07T08:45:26;31.20;;;12.13;;
58470;SDS011;44258;51.288;12.068;2023-12-07T08:47:54;32.08;;;12.20;;
58470;SDS011;44258;51.288;12.068;2023-12-07T08:50:21;27.73;;;12.43;;
58470;SDS011;44258;51.288;12.068;2023-12-07T08:52:47;28.25;;;12.48;;
58470;SDS011;44258;51.288;12.068;2023-12-07T08:55:14;25.15;;;11.32;;
58470;SDS011;44258;51.288;12.068;2023-12-07T08:57:42;31.63;;;12.85;;
58470;SDS011;44258;51.288;12.068;2023-12-07T09:00:09;32.03;;;12.02;;
58470;SDS011;44258;51.288;12.068;2023-12-07T09:02:39;31.08;;;12.43;;
58470;SDS011;44258;51.288;12.068;2023-12-07T09:05:07;29.60;;;11.73;;
58470;SDS011;44258;51.288;12.068;2023-12-07T09:07:34;31.58;;;12.13;;
58470;SDS011;44258;51.288;12.068;2023-12-07T09:10:00;32.03;;;13.20;;
58470;SDS011;44258;51.288;12.068;2023-12-07T09:12:28;28.27;;;12.13;;
58470;SDS011;44258;51.288;12.068;2023-12-07T09:14:54;31.65;;;13.48;;
58470;SDS011;44258;51.288;12.068;2023-12-07T09:17:22;28.95;;;12.93;;
58470;SDS011;44258;51.288;12.068;2023-12-07T09:19:50;33.67;;;13.27;;
58470;SDS011;44258;51.288;12.068;2023-12-07T09:22:16;32.75;;;13.60;;
58470;SDS011;44258;51.288;12.068;2023-12-07T09:24:43;31.27;;;13.27;;
58470;SDS011;44258;51.288;12.068;2023-12-07T09:27:11;34.10;;;12.52;;
58470;SDS011;44258;51.288;12.068;2023-12-07T09:29:38;33.63;;;13.65;;
58470;SDS011;44258;51.288;12.068;2023-12-07T09:32:05;28.45;;;12.70;;
58470;SDS011;44258;51.288;12.068;2023-12-07T09:34:32;30.65;;;12.50;;
58470;SDS011;44258;51.288;12.068;2023-12-07T09:37:07;31.98;;;12.98;;
58470;SDS011;44258;51.288;12.068;2023-12-07T09:39:34;33.28;;;12.75;;
58470;SDS011;44258;51.288;12.068;2023-12-07T09:42:01;33.75;;;14.25;;
58470;SDS011;44258;51.288;12.068;2023-12-07T09:44:28;28.08;;;11.77;;
58470;SDS011;44258;51.288;12.068;2023-12-07T09:46:55;31.92;;;12.77;;
58470;SDS011;44258;51.288;12.068;2023-12-07T09:49:21;33.33;;;12.77;;
58470;SDS011;44258;51.288;12.068;2023-12-07T09:51:48;28.73;;;11.88;;
58470;SDS011;44258;51.288;12.068;2023-12-07T09:54:18;31.98;;;11.63;;
58470;SDS011;44258;51.288;12.068;2023-12-07T09:56:48;30.80;;;12.60;;
58470;SDS011;44258;51.288;12.068;2023-12-07T09:59:16;30.33;;;13.07;;
58470;SDS011;44258;51.288;12.068;2023-12-07T10:01:43;31.00;;;12.75;;
58470;SDS011;44258;51.288;12.068;2023-12-07T10:04:18;35.17;;;13.32;;
58470;SDS011;44258;51.288;12.068;2023-12-07T10:06:47;36.40;;;13.63;;
58470;SDS011;44258;51.288;12.068;2023-12-07T10:09:14;32.15;;;13.82;;
58470;SDS011;44258;51.288;12.068;2023-12-07T10:11:44;33.25;;;14.18;;
58470;SDS011;44258;51.288;12.068;2023-12-07T10:14:13;37.00;;;13.32;;
58470;SDS011;44258;51.288;12.068;2023-12-07T10:16:42;32.25;;;13.25;;
58470;SDS011;44258;51.288;12.068;2023-12-07T10:19:20;30.70;;;13.25;;
58470;SDS011;44258;51.288;12.068;2023-12-07T10:21:48;33.13;;;13.88;;
58470;SDS011;44258;51.288;12.068;2023-12-07T10:24:17;31.02;;;12.88;;
58470;SDS011;44258;51.288;12.068;2023-12-07T10:26:47;37.40;;;13.77;;
58470;SDS011;44258;51.288;12.068;2023-12-07T10:29:17;32.95;;;14.05;;
58470;SDS011;44258;51.288;12.068;2023-12-07T10:31:44;32.53;;;12.88;;
58470;SDS011;44258;51.288;12.068;2023-12-07T10:34:12;31.45;;;13.52;;
58470;SDS011;44258;51.288;12.068;2023-12-07T10:36:44;34.60;;;13.93;;
58470;SDS011;44258;51.288;12.068;2023-12-07T10:39:11;30.58;;;13.02;;
58470;SDS011;44258;51.288;12.068;2023-12-07T10:41:38;33.15;;;12.52;;
58470;SDS011;44258;51.288;12.068;2023-12-07T10:44:11;33.65;;;13.98;;
58470;SDS011;44258;51.288;12.068;2023-12-07T10:46:40;29.88;;;12.60;;
58470;SDS011;44258;51.288;12.068;2023-12-07T10:49:10;29.75;;;12.68;;
58470;SDS011;44258;51.288;12.068;2023-12-07T10:51:50;33.22;;;13.60;;
58470;SDS011;44258;51.288;12.068;2023-12-07T10:54:24;29.30;;;13.25;;
58470;SDS011;44258;51.288;12.068;2023-12-07T10:57:01;27.05;;;11.60;;
58470;SDS011;44258;51.288;12.068;2023-12-07T10:59:32;29.98;;;12.65;;
58470;SDS011;44258;51.288;12.068;2023-12-07T11:02:02;26.52;;;11.75;;
58470;SDS011;44258;51.288;12.068;2023-12-07T11:04:31;29.25;;;12.43;;
58470;SDS011;44258;51.288;12.068;2023-12-07T11:07:00;28.75;;;12.70;;
58470;SDS011;44258;51.288;12.068;2023-12-07T11:09:35;30.35;;;11.27;;
58470;SDS011;44258;51.288;12.068;2023-12-07T11:12:11;30.83;;;13.98;;
58470;SDS011;44258;51.288;12.068;2023-12-07T11:14:45;28.45;;;11.80;;
58470;SDS011;44258;51.288;12.068;2023-12-07T11:17:13;30.30;;;12.85;;
58470;SDS011;44258;51.288;12.068;2023-12-07T11:19:45;30.25;;;12.82;;
58470;SDS011;44258;51.288;12.068;2023-12-07T11:22:13;28.33;;;12.43;;
58470;SDS011;44258;51.288;12.068;2023-12-07T11:24:51;29.58;;;12.55;;
58470;SDS011;44258;51.288;12.068;2023-12-07T11:27:19;29.27;;;12.25;;
58470;SDS011;44258;51.288;12.068;2023-12-07T11:29:49;26.25;;;11.05;;
58470;SDS011;44258;51.288;12.068;2023-12-07T11:32:15;27.88;;;11.75;;
58470;SDS011;44258;51.288;12.068;2023-12-07T11:34:43;26.63;;;12.13;;
58470;SDS011;44258;51.288;12.068;2023-12-07T11:37:10;27.13;;;11.20;;
58470;SDS011;44258;51.288;12.068;2023-12-07T11:39:39;23.27;;;10.65;;
58470;SDS011;44258;51.288;12.068;2023-12-07T11:42:09;28.40;;;10.15;;
58470;SDS011;44258;51.288;12.068;2023-12-07T11:44:37;27.10;;;11.52;;
58470;SDS011;44258;51.288;12.068;2023-12-07T11:47:06;26.77;;;11.43;;
58470;SDS011;44258;51.288;12.068;2023-12-07T11:49:33;28.95;;;12.73;;
58470;SDS011;44258;51.288;12.068;2023-12-07T11:52:00;26.05;;;11.40;;
58470;SDS011;44258;51.288;12.068;2023-12-07T11:54:43;29.17;;;12.48;;
58470;SDS011;44258;51.288;12.068;2023-12-07T11:57:11;30.67;;;13.40;;
58470;SDS011;44258;51.288;12.068;2023-12-07T11:59:39;34.10;;;13.98;;
58470;SDS011;44258;51.288;12.068;2023-12-07T12:02:09;28.10;;;13.30;;
58470;SDS011;44258;51.288;12.068;2023-12-07T12:04:38;31.30;;;12.95;;
58470;SDS011;44258;51.288;12.068;2023-12-07T12:07:05;29.35;;;13.25;;
58470;SDS011;44258;51.288;12.068;2023-12-07T12:09:31;27.50;;;12.25;;
58470;SDS011;44258;51.288;12.068;2023-12-07T12:11:59;26.85;;;11.50;;
58470;SDS011;44258;51.288;12.068;2023-12-07T12:14:26;26.17;;;12.18;;
58470;SDS011;44258;51.288;12.068;2023-12-07T12:16:53;25.75;;;10.77;;
58470;SDS011;44258;51.288;12.068;2023-12-07T12:19:21;28.20;;;11.40;;
58470;SDS011;44258;51.288;12.068;2023-12-07T12:21:49;23.33;;;11.27;;
58470;SDS011;44258;51.288;12.068;2023-12-07T12:24:18;22.17;;;10.35;;
58470;SDS011;44258;51.288;12.068;2023-12-07T12:26:45;23.17;;;10.73;;
58470;SDS011;44258;51.288;12.068;2023-12-07T12:29:14;22.77;;;10.40;;
58470;SDS011;44258;51.288;12.068;2023-12-07T12:31:43;23.33;;;10.63;;
58470;SDS011;44258;51.288;12.068;2023-12-07T12:34:10;23.42;;;10.65;;
58470;SDS011;44258;51.288;12.068;2023-12-07T12:36:39;21.98;;;10.27;;
58470;SDS011;44258;51.288;12.068;2023-12-07T12:39:06;23.45;;;10.25;;
58470;SDS011;44258;51.288;12.068;2023-12-07T12:41:35;24.75;;;10.80;;
58470;SDS011;44258;51.288;12.068;2023-12-07T12:44:04;24.27;;;10.00;;
58470;SDS011;44258;51.288;12.068;2023-12-07T12:46:31;25.13;;;11.13;;
58470;SDS011;44258;51.288;12.068;2023-12-07T12:49:01;24.13;;;10.50;;
58470;SDS011;44258;51.288;12.068;2023-12-07T12:51:28;22.10;;;9.77;;
58470;SDS011;44258;51.288;12.068;2023-12-07T12:53:59;21.88;;;9.95;;
58470;SDS011;44258;51.288;12.068;2023-12-07T12:56:27;21.75;;;9.18;;
58470;SDS011;44258;51.288;12.068;2023-12-07T12:58:54;20.80;;;9.68;;
58470;SDS011;44258;51.288;12.068;2023-12-07T13:01:23;22.45;;;10.10;;
58470;SDS011;44258;51.288;12.068;2023-12-07T13:03:50;21.20;;;8.63;;
58470;SDS011;44258;51.288;12.068;2023-12-07T13:06:17;23.55;;;9.68;;
58470;SDS011;44258;51.288;12.068;2023-12-07T13:08:44;21.10;;;9.38;;
58470;SDS011;44258;51.288;12.068;2023-12-07T13:11:16;19.88;;;8.30;;
58470;SDS011;44258;51.288;12.068;2023-12-07T13:13:44;23.15;;;10.25;;
58470;SDS011;44258;51.288;12.068;2023-12-07T13:16:12;18.70;;;8.25;;
58470;SDS011;44258;51.288;12.068;2023-12-07T13:18:40;19.52;;;8.57;;
58470;SDS011;44258;51.288;12.068;2023-12-07T13:21:08;18.95;;;8.38;;
58470;SDS011;44258;51.288;12.068;2023-12-07T13:23:35;16.83;;;7.82;;
58470;SDS011;44258;51.288;12.068;2023-12-07T13:26:02;16.90;;;7.93;;
58470;SDS011;44258;51.288;12.068;2023-12-07T13:28:33;18.10;;;8.25;;
58470;SDS011;44258;51.288;12.068;2023-12-07T13:31:02;16.30;;;7.50;;
58470;SDS011;44258;51.288;12.068;2023-12-07T13:33:29;17.65;;;7.63;;
58470;SDS011;44258;51.288;12.068;2023-12-07T13:35:55;17.95;;;7.95;;
58470;SDS011;44258;51.288;12.068;2023-12-07T13:38:22;16.85;;;7.68;;
58470;SDS011;44258;51.288;12.068;2023-12-07T13:40:49;16.77;;;7.75;;
58470;SDS011;44258;51.288;12.068;2023-12-07T13:43:16;18.27;;;7.65;;
58470;SDS011;44258;51.288;12.068;2023-12-07T13:45:44;20.25;;;8.55;;
58470;SDS011;44258;51.288;12.068;2023-12-07T13:48:10;17.35;;;7.68;;
58470;SDS011;44258;51.288;12.068;2023-12-07T13:50:38;15.40;;;6.82;;
58470;SDS011;44258;51.288;12.068;2023-12-07T13:53:05;18.73;;;8.38;;
58470;SDS011;44258;51.288;12.068;2023-12-07T13:55:35;19.27;;;8.80;;
58470;SDS011;44258;51.288;12.068;2023-12-07T13:58:04;18.65;;;8.43;;
58470;SDS011;44258;51.288;12.068;2023-12-07T14:00:33;18.00;;;7.95;;
58470;SDS011;44258;51.288;12.068;2023-12-07T14:03:02;19.65;;;8.43;;
58470;SDS011;44258;51.288;12.068;2023-12-07T14:05:29;18.80;;;8.07;;
58470;SDS011;44258;51.288;12.068;2023-12-07T14:07:56;20.75;;;9.25;;
58470;SDS011;44258;51.288;12.068;2023-12-07T14:10:23;20.70;;;9.30;;
58470;SDS011;44258;51.288;12.068;2023-12-07T14:12:49;22.27;;;9.88;;
58470;SDS011;44258;51.288;12.068;2023-12-07T14:15:16;20.48;;;8.85;;
58470;SDS011;44258;51.288;12.068;2023-12-07T14:17:43;21.10;;;8.73;;